Indianapolis, Indiana
Traffic Map
Current Weather Conditions
Indianapolis, Indiana
Broken Clouds
Broken Clouds
28°
Feels Like: 28°
Wind Chill: 28° Ceiling: 21000
Heat Index: 28° Visibility: 10mi
Dew Point: 16° Wind: 5mph
Humidity: 47% Direction: 150° (SSE)
Pressure: 29.99in Gusts: 0mph
Raw Report DataKIND 311554Z 15004KT 10SM FEW046 BKN210 28/16 A2999 RMK AO2 SLP149 TCU DSNT E T02780156 $
Traffic Incident Summary
Active as of:
Severity:
Category:
InformationThere was an issue retrieving the traffic information for this location. Please try a different location or try again shortly.
Advertisements
Track Severe Weather on mobile